Latest Weather Observations for Mount Ginini

IDN60801

Issued at 12:03 am EDT Friday 23 February 2018 (issued every 30 minutes, with the page automatically refreshed every 10 minutes)

About weather observations | Map of weather stations | Latest weather observations for NSW | Other Formats
Station Details ID: 070349 Name: MOUNT GININI AWS Lat: -35.53 Lon: 148.77 Height: 1760.0 m
Data from the previous 72 hours. | See also: Recent months at Mount Ginini
Date/Time
EDT
Temp
°C
App
Temp
°C
Dew
Point
°C
Rel
Hum
%
Delta-T
°C
Wind Press
QNH
hPa
Press
MSL
hPa
Rain since
9am
mm
Dir  Spd
km/h
Gust
km/h
Spd
kts
Gust
kts
23/12:00am 9.8 6.5 6.3 79 1.8 ENE 13 20 7 11 - - 0.0
 
Date/Time
EDT
Temp
°C
App
Temp
°C
Dew
Point
°C
Rel
Hum
%
Delta-T
°C
Wind Press
QNH
hPa
Press
MSL
hPa
Rain since
9am
mm
Dir  Spd
km/h
Gust
km/h
Spd
kts
Gust
kts
22/11:30pm 10.2 6.7 5.4 72 2.4 ENE 13 22 7 12 - - 0.0
22/11:00pm 10.6 7.0 5.2 69 2.7 ENE 13 20 7 11 - - 0.0
22/10:30pm 10.7 7.0 4.4 65 3.1 ENE 13 20 7 11 - - 0.0
22/10:00pm 10.9 7.6 2.7 57 3.9 ENE 9 17 5 9 - - 0.0
22/09:30pm 11.8 8.2 3.1 55 4.2 ENE 11 20 6 11 - - 0.0
22/09:00pm 12.4 8.0 0.2 43 5.6 ENE 13 22 7 12 - - 0.0
22/08:30pm 12.6 8.4 -0.6 40 6.0 NE 11 19 6 10 - - 0.0
22/08:00pm 12.5 8.6 1.2 46 5.3 NE 11 17 6 9 - - 0.0
22/07:30pm 13.5 10.4 3.8 52 4.9 NE 9 17 5 9 - - 0.0
22/07:00pm 13.9 11.5 4.2 52 4.9 ENE 6 11 3 6 - - 0.0
22/06:30pm 15.4 13.4 4.2 47 5.7 ENE 4 9 2 5 - - 0.0
22/06:00pm 16.0 14.2 5.3 49 5.6 ENE 4 9 2 5 - - 0.0
22/05:30pm 17.1 15.4 5.7 47 6.1 N 4 9 2 5 - - 0.0
22/05:00pm 17.8 16.2 4.4 41 7.0 SSE 2 6 1 3 - - 0.0
22/04:30pm 17.0 15.6 5.3 46 6.2 SW 2 11 1 6 - - 0.0
22/04:00pm 15.8 13.4 4.5 47 5.8 WSW 6 15 3 8 - - 0.0
22/03:30pm 15.4 12.9 4.5 48 5.6 NW 7 13 4 7 - - 0.0
22/03:00pm 15.8 13.3 3.9 45 6.1 W 6 13 3 7 - - 0.0
22/02:30pm 15.8 13.7 3.9 45 6.1 NW 4 11 2 6 - - 0.0
22/02:00pm 14.7 12.3 5.2 53 4.9 NW 7 13 4 7 - - 0.0
22/01:30pm 14.4 12.0 4.1 50 5.2 WNW 6 11 3 6 - - 0.0
22/01:00pm 14.7 11.9 3.2 46 5.7 WNW 7 13 4 7 - - 0.0
22/12:30pm 14.9 12.1 3.4 46 5.8 WNW 7 13 4 7 - - 0.0
22/12:00pm 15.5 12.6 2.7 42 6.4 WNW 7 17 4 9 - - 0.0
22/11:30am 16.6 14.7 4.9 46 6.1 NW 4 15 2 8 - - 0.0
22/11:00am 15.7 13.0 2.8 42 6.4 NNE 6 13 3 7 - - 0.0
22/10:30am 15.3 11.9 2.1 41 6.5 NNE 9 19 5 10 - - 0.0
22/10:00am 14.7 11.6 3.8 48 5.5 NNE 9 19 5 10 - - 0.0
22/09:30am 12.8 9.7 1.5 46 5.4 NNE 7 15 4 8 - - 0.0
22/09:00am 12.1 9.4 2.6 52 4.6 N 6 9 3 5 - - 0.0
22/08:30am 12.0 9.3 2.5 52 4.6 N 6 11 3 6 - - 0.0
22/08:00am 11.4 8.5 1.4 50 4.7 N 6 9 3 5 - - 0.0
22/07:30am 11.0 8.3 2.8 57 3.9 NNE 6 7 3 4 - - 0.0
22/07:00am 11.0 8.6 2.3 55 4.1 ENE 4 7 2 4 - - 0.0
22/06:30am 11.0 8.0 2.1 54 4.2 NNE 7 11 4 6 - - 0.0
22/06:00am 11.2 8.3 1.7 52 4.5 N 6 11 3 6 - - 0.0
22/05:30am 11.1 8.3 2.2 54 4.2 N 6 11 3 6 - - 0.0
22/05:00am 11.4 8.0 1.6 51 4.6 NNE 9 17 5 9 - - 0.0
22/04:30am 11.9 8.4 1.0 47 5.1 NNE 9 15 5 8 - - 0.0
22/04:00am 12.0 8.8 0.8 46 5.2 N 7 11 4 6 - - 0.0
22/03:30am 12.1 9.3 2.3 51 4.7 NNW 6 11 3 6 - - 0.0
22/03:00am 11.7 9.2 3.5 57 4.0 NNW 6 11 3 6 - - 0.0
22/02:30am 11.2 8.5 2.8 56 4.0 NNE 6 11 3 6 - - 0.0
22/02:00am 11.2 8.7 3.5 59 3.8 NNE 6 7 3 4 - - 0.0
22/01:30am 11.2 9.0 3.5 59 3.8 NE 4 6 2 3 - - 0.0
22/01:00am 10.9 8.5 4.1 63 3.4 NNE 6 7 3 4 - - 0.0
22/12:30am 10.6 8.1 4.5 66 3.0 NE 7 11 4 6 - - 0.0
22/12:00am 11.4 9.9 5.1 65 3.2 NE 2 4 1 2 - - 0.0
 
Date/Time
EDT
Temp
°C
App
Temp
°C
Dew
Point
°C
Rel
Hum
%
Delta-T
°C
Wind Press
QNH
hPa
Press
MSL
hPa
Rain since
9am
mm
Dir  Spd
km/h
Gust
km/h
Spd
kts
Gust
kts
21/11:30pm 10.8 8.3 4.0 63 3.4 ENE 6 9 3 5 - - 0.0
21/11:00pm 10.6 7.9 3.6 62 3.4 NE 7 11 4 6 - - 0.0
21/10:30pm 10.9 8.2 3.7 61 3.5 NNE 7 11 4 6 - - 0.0
21/10:00pm 11.3 8.1 3.1 57 4.0 NE 9 13 5 7 - - 0.0
21/09:30pm 11.5 8.9 3.0 56 4.1 NE 6 9 3 5 - - 0.0
21/09:00pm 11.6 9.0 3.4 57 4.0 NE 6 7 3 4 - - 0.0
21/08:30pm 11.7 9.6 4.0 59 3.8 NNE 4 6 2 3 - - 0.0
21/08:00pm 11.9 9.8 3.9 58 4.0 NNE 4 7 2 4 - - 0.0
21/07:30pm 12.4 10.1 4.6 59 3.9 N 6 9 3 5 - - 0.0
21/07:00pm 13.2 10.9 4.9 57 4.2 N 6 11 3 6 - - 0.0
21/06:30pm 13.8 12.2 6.4 61 3.9 NE 4 9 2 5 - - 0.0
21/06:00pm 14.0 12.5 6.6 61 3.9 N 4 9 2 5 - - 0.0
21/05:30pm 14.8 13.3 6.6 58 4.4 NW 4 7 2 4 - - 0.0
21/05:00pm 15.0 13.9 6.8 58 4.4 NW 2 6 1 3 - - 0.0
21/04:30pm 14.8 13.3 6.9 59 4.2 NNW 4 7 2 4 - - 0.0
21/04:00pm 15.1 13.7 7.4 60 4.2 N 4 11 2 6 - - 0.0
21/03:30pm 15.1 13.1 6.9 58 4.4 N 7 15 4 8 - - 0.0
21/03:00pm 15.5 13.7 7.3 58 4.5 N 6 13 3 7 - - 0.0
21/02:30pm 17.4 16.1 7.5 52 5.5 N 4 11 2 6 - - 0.0
21/02:00pm 17.4 15.5 6.9 50 5.7 N 6 13 3 7 - - 0.0
21/01:30pm 17.5 16.0 7.0 50 5.7 N 4 11 2 6 - - 0.0
21/01:00pm 17.0 15.3 5.9 48 5.9 NE 4 11 2 6 - - 0.0
21/12:30pm 16.4 14.3 6.0 50 5.5 SW 6 11 3 6 - - 0.0
21/12:00pm 16.5 14.7 5.2 47 5.9 SE 4 7 2 4 - - 0.0
21/11:30am 15.1 12.8 3.0 44 6.0 SE 4 15 2 8 - - 0.0
21/11:00am 14.5 11.8 2.4 44 5.9 SE 6 15 3 8 - - 0.0
21/10:30am 14.8 12.2 1.0 39 6.6 SE 4 15 2 8 - - 0.0
21/10:00am 15.1 12.1 0.5 37 6.9 ESE 6 13 3 7 - - 0.0
21/09:30am 14.2 10.7 -3.1 30 7.5 SE 6 13 3 7 - - 0.0
21/09:00am 14.2 10.3 -6.1 24 8.3 SSE 6 13 3 7 - - 0.0
21/08:30am 13.2 9.3 -6.4 25 7.9 SE 6 13 3 7 - - 0.0
21/08:00am 12.6 8.8 -5.4 28 7.3 SE 6 15 3 8 - - 0.0
21/07:30am 10.8 7.0 -3.7 36 6.0 SE 7 19 4 10 - - 0.0
21/07:00am 9.8 5.9 -1.3 46 4.8 SE 9 15 5 8 - - 0.0
21/06:30am 9.7 5.5 -3.9 38 5.6 SSE 9 17 5 9 - - 0.0
21/06:00am 9.9 5.4 -6.8 30 6.4 SSE 9 15 5 8 - - 0.0
21/05:30am 10.3 5.6 -8.8 25 7.0 SE 9 15 5 8 - - 0.0
21/05:00am 9.9 5.7 -8.2 27 6.7 SE 7 17 4 9 - - 0.0
21/04:30am 7.8 4.1 -4.9 40 5.0 ESE 6 13 3 7 - - 0.0
21/04:00am 4.8 2.0 2.3 84 1.1 E 6 15 3 8 - - 0.0
21/03:30am 6.2 3.4 3.4 82 1.3 ESE 7 15 4 8 - - 0.0
21/03:00am 5.7 3.4 4.7 93 0.5 E 6 13 3 7 - - 0.0
21/02:30am 7.1 3.9 3.0 75 1.9 SE 9 20 5 11 - - 0.0
21/02:00am 6.7 3.7 5.8 94 0.4 SSE 11 15 6 8 - - 0.0
21/01:30am 7.2 4.7 6.5 95 0.4 SE 9 20 5 11 - - 0.0
21/01:00am 5.9 3.5 5.2 95 0.3 SE 7 15 4 8 - - 0.0
21/12:30am 6.4 3.7 5.8 96 0.3 SE 9 15 5 8 - - 0.0
21/12:00am 6.6 4.0 6.0 96 0.3 SE 9 19 5 10 - - 0.0
 
Date/Time
EDT
Temp
°C
App
Temp
°C
Dew
Point
°C
Rel
Hum
%
Delta-T
°C
Wind Press
QNH
hPa
Press
MSL
hPa
Rain since
9am
mm
Dir  Spd
km/h
Gust
km/h
Spd
kts
Gust
kts
20/11:30pm 6.0 3.3 5.6 97 0.2 SE 9 15 5 8 - - 0.0
20/11:00pm 5.7 3.3 5.1 96 0.3 SE 7 15 4 8 - - 0.0
20/10:30pm 6.2 3.9 5.6 96 0.3 SE 7 15 4 8 - - 0.0
20/10:00pm 5.8 3.6 5.2 96 0.3 E 6 15 3 8 - - 0.0
20/09:30pm 6.1 3.4 5.5 96 0.3 ESE 9 17 5 9 - - 0.0
20/09:00pm 6.6 4.9 5.9 95 0.3 E 4 11 2 6 - - 0.0
20/08:30pm 6.7 4.5 6.0 95 0.4 ESE 7 17 4 9 - - 0.0
20/08:00pm 7.3 3.6 6.4 94 0.5 E 15 19 8 10 - - 0.0
20/07:30pm 8.0 4.7 6.3 89 0.9 E 13 19 7 10 - - 0.0
20/07:00pm 9.8 7.1 5.6 75 2.1 ENE 9 20 5 11 - - 0.0
20/06:30pm 11.5 8.8 5.6 67 3.0 ENE 9 17 5 9 - - 0.0
20/06:00pm 12.5 9.1 4.0 56 4.2 E 11 20 6 11 - - 0.0
20/05:30pm 13.0 9.7 4.4 56 4.3 E 11 22 6 12 - - 0.0
20/05:00pm 14.0 11.1 4.9 54 4.7 E 9 20 5 11 - - 0.0
20/04:30pm 14.4 11.6 5.2 54 4.8 E 9 22 5 12 - - 0.0
20/04:00pm 13.4 10.4 4.0 53 4.7 ESE 9 22 5 12 - - 0.0
20/03:30pm 13.5 11.0 4.6 55 4.5 ESE 7 24 4 13 - - 0.0
20/03:00pm 12.3 8.5 3.8 56 4.2 ESE 13 30 7 16 - - 0.0
20/02:30pm 12.7 9.8 4.4 57 4.2 ESE 9 26 5 14 - - 0.0
20/02:00pm 12.2 8.1 4.4 59 3.9 E 15 28 8 15 - - 0.0
20/01:30pm 11.3 7.4 3.6 59 3.8 E 13 30 7 16 - - 0.0
20/01:00pm 11.1 7.6 3.4 59 3.8 E 11 26 6 14 - - 0.0
20/12:30pm 10.7 6.9 4.0 63 3.3 E 13 30 7 16 - - 0.0
20/12:00pm 10.6 7.4 4.9 68 2.9 E 11 26 6 14 - - 0.0
20/11:30am 8.7 4.8 5.3 79 1.7 ESE 15 33 8 18 - - 0.0
20/11:00am 8.4 4.2 7.3 93 0.6 E 19 32 10 17 - - 0.0
20/10:30am 7.5 4.7 6.8 95 0.4 ESE 11 26 6 14 - - 0.0
20/10:00am 7.8 6.0 7.2 96 0.3 ESE 6 17 3 9 - - 0.0
20/09:30am 6.5 4.3 6.1 97 0.2 ESE 7 22 4 12 - - 0.0
20/09:00am 5.7 3.3 5.3 97 0.2 ESE 7 26 4 14 - - 0.0
20/08:30am 5.2 2.3 4.8 97 0.2 ESE 9 33 5 18 - - 0.0
20/08:00am 5.4 2.9 5.0 97 0.2 ESE 7 24 4 13 - - 0.0
20/07:30am 5.4 2.6 5.0 97 0.2 ESE 9 24 5 13 - - 0.0
20/07:00am 5.7 2.9 5.3 97 0.2 ESE 9 26 5 14 - - 0.0
20/06:30am 5.8 2.7 5.4 97 0.2 ESE 11 30 6 16 - - 0.0
20/06:00am 6.1 2.3 5.7 97 0.2 ESE 15 30 8 16 - - 0.0
20/05:30am 6.3 3.7 5.9 97 0.2 ESE 9 24 5 13 - - 0.0
20/05:00am 6.7 4.7 6.3 97 0.2 ESE 6 19 3 10 - - 0.0
20/04:30am 6.7 4.1 6.3 97 0.2 ESE 9 30 5 16 - - 0.0
20/04:00am 6.8 2.7 6.4 97 0.2 E 17 37 9 20 - - 0.0
20/03:30am 7.2 2.3 6.8 97 0.2 E 22 39 12 21 - - 0.0
20/03:00am 7.2 2.7 6.8 97 0.2 ESE 20 41 11 22 - - 0.0
20/02:30am 7.4 2.1 7.0 97 0.2 E 24 50 13 27 - - 0.0
20/02:00am 7.7 1.4 7.3 97 0.2 E 30 50 16 27 - - 0.0
20/01:42am 7.8 1.9 7.4 97 0.2 ESE 28 50 15 27 - - 0.0
20/01:30am 7.9 4.5 7.5 97 0.2 ESE 15 48 8 26 - - 0.0
20/01:00am 8.3 4.0 8.0 98 0.2 ESE 20 50 11 27 - - 0.0
20/12:30am 8.5 3.5 8.2 98 0.2 ESE 24 54 13 29 - - 0.0

Other Formats:

Comma delimited format used in spreadsheet applications
http://www.bom.gov.au/fwo/IDN60801/IDN60801.95925.axf

JavaScript Object Notation format (JSON) in row-major order
http://www.bom.gov.au/fwo/IDN60801/IDN60801.95925.json